createdAt,value
2019-03-19T00:02:30.059Z,5.99
2019-03-19T00:07:34.448Z,6.08
2019-03-19T00:12:38.810Z,6.11
2019-03-19T00:17:43.199Z,5.98
2019-03-19T00:22:47.594Z,5.87
2019-03-19T00:27:53.021Z,6.03
2019-03-19T00:32:57.337Z,6.15
2019-03-19T00:38:01.674Z,5.88
2019-03-19T00:43:06.064Z,5.91
2019-03-19T00:48:10.416Z,5.78
2019-03-19T00:53:14.985Z,5.92
2019-03-19T00:58:19.339Z,5.59
2019-03-19T01:03:23.680Z,5.49
2019-03-19T01:08:29.090Z,5.39
2019-03-19T01:13:33.437Z,5.19
2019-03-19T01:18:37.776Z,5.36
2019-03-19T01:23:42.164Z,5.53
2019-03-19T01:28:46.899Z,5.66
2019-03-19T01:33:51.262Z,5.96
2019-03-19T01:38:55.625Z,6.03
2019-03-19T01:44:00.000Z,5.91
2019-03-19T01:49:05.461Z,5.48
2019-03-19T01:54:09.805Z,5.59
2019-03-19T01:59:14.181Z,5.65
2019-03-19T02:04:18.647Z,5.63
2019-03-19T02:09:23.027Z,5.71
2019-03-19T02:14:27.435Z,5.45
2019-03-19T02:19:32.072Z,5.41
2019-03-19T02:24:36.434Z,5.49
2019-03-19T02:29:40.782Z,5.32
2019-03-19T02:34:45.137Z,5.27
2019-03-19T02:39:49.508Z,5.52
2019-03-19T02:44:53.898Z,5.44
2019-03-19T02:49:58.260Z,5.08
2019-03-19T02:55:02.627Z,5.03
2019-03-19T03:00:19.429Z,5.23
2019-03-19T03:05:23.797Z,5.32
2019-03-19T03:10:28.162Z,5.40
2019-03-19T03:15:32.638Z,5.74
2019-03-19T03:20:36.993Z,5.32
2019-03-19T03:25:41.347Z,5.31
2019-03-19T03:30:45.692Z,5.50
2019-03-19T03:35:50.036Z,5.26
2019-03-19T03:40:54.421Z,5.21
2019-03-19T03:45:58.755Z,5.17
2019-03-19T03:51:03.118Z,5.28
2019-03-19T03:56:07.483Z,5.38
2019-03-19T04:01:11.835Z,5.11
2019-03-19T04:06:16.173Z,5.53
2019-03-19T04:11:20.574Z,5.45
2019-03-19T04:16:25.027Z,5.37
2019-03-19T04:21:29.379Z,5.38
2019-03-19T04:26:33.730Z,5.46
2019-03-19T04:31:38.116Z,5.51
2019-03-19T04:36:43.542Z,5.47
2019-03-19T04:41:47.937Z,5.42
2019-03-19T04:46:52.357Z,5.48
2019-03-19T04:51:56.729Z,5.41
2019-03-19T04:57:01.081Z,5.37
2019-03-19T05:02:05.660Z,5.25
2019-03-19T05:07:10.035Z,5.21
2019-03-19T05:12:14.381Z,5.16
2019-03-19T05:17:18.744Z,5.03
2019-03-19T05:22:23.130Z,4.89
2019-03-19T05:27:37.047Z,4.96
2019-03-19T05:32:33.551Z,4.97
2019-03-19T05:37:37.932Z,4.68
2019-03-19T05:42:42.360Z,5.14
2019-03-19T05:47:46.689Z,4.61
2019-03-19T05:52:51.067Z,5.14
2019-03-19T05:57:55.417Z,4.83
2019-03-19T06:02:59.929Z,5.24
2019-03-19T06:08:04.359Z,4.81
2019-03-19T06:13:08.732Z,5.13
2019-03-19T06:18:13.102Z,4.87
2019-03-19T06:23:17.477Z,4.93
2019-03-19T06:28:22.639Z,5.17
2019-03-19T06:33:27.248Z,5.19
2019-03-19T06:38:31.596Z,5.00
2019-03-19T06:43:36.933Z,5.06
2019-03-19T06:48:41.276Z,5.49
2019-03-19T06:53:45.676Z,5.43
2019-03-19T06:58:50.004Z,5.40
2019-03-19T07:03:54.380Z,5.62
2019-03-19T07:08:58.740Z,5.52
2019-03-19T07:14:03.095Z,5.78
2019-03-19T07:19:07.475Z,5.95
2019-03-19T07:24:11.854Z,5.80
2019-03-19T07:29:16.230Z,5.93
2019-03-19T07:34:20.584Z,5.63
2019-03-19T07:39:24.964Z,5.68
2019-03-19T07:44:29.319Z,6.02
2019-03-19T07:49:33.667Z,6.57
2019-03-19T07:54:38.764Z,7.36
2019-03-19T07:59:43.111Z,6.94
2019-03-19T08:04:47.508Z,7.21
2019-03-19T08:09:51.859Z,7.03
2019-03-19T08:14:56.223Z,6.34
2019-03-19T08:20:00.623Z,6.34
2019-03-19T08:25:08.821Z,6.54
2019-03-19T08:30:24.476Z,6.35
2019-03-19T08:35:28.468Z,6.28
2019-03-19T08:40:32.835Z,6.06
2019-03-19T08:45:37.229Z,5.85
2019-03-19T08:50:41.603Z,6.01
2019-03-19T08:55:45.947Z,5.30
2019-03-19T09:00:50.312Z,5.83
2019-03-19T09:05:54.835Z,6.13
2019-03-19T09:10:59.179Z,6.31
2019-03-19T09:16:03.637Z,6.50
2019-03-19T09:21:09.120Z,6.28
2019-03-19T09:26:13.466Z,6.36
2019-03-19T09:31:17.911Z,6.10
2019-03-19T09:36:22.279Z,6.73
2019-03-19T09:41:26.669Z,6.43
2019-03-19T09:46:31.015Z,6.84
2019-03-19T09:51:35.463Z,6.96
2019-03-19T09:56:39.830Z,7.29
2019-03-19T10:01:44.207Z,7.05
2019-03-19T10:06:48.579Z,7.69
2019-03-19T10:11:52.932Z,7.62
2019-03-19T10:16:57.340Z,7.29
2019-03-19T10:22:01.680Z,7.35
2019-03-19T10:27:06.022Z,7.19
2019-03-19T10:32:10.358Z,7.38
2019-03-19T10:37:14.686Z,8.08
2019-03-19T10:42:19.211Z,7.89
2019-03-19T10:47:23.704Z,8.09
2019-03-19T10:52:28.026Z,8.10
2019-03-19T10:57:32.399Z,8.71
2019-03-19T11:02:36.768Z,7.78
2019-03-19T11:07:41.139Z,8.27
2019-03-19T11:12:45.484Z,7.99
2019-03-19T11:17:49.896Z,8.37
2019-03-19T11:22:54.237Z,8.46
2019-03-19T11:27:58.607Z,8.29
2019-03-19T11:33:03.102Z,8.64
2019-03-19T11:38:08.203Z,7.94
2019-03-19T11:43:12.595Z,7.48
2019-03-19T11:48:16.929Z,7.74
2019-03-19T11:53:21.372Z,7.60
2019-03-19T11:58:25.710Z,7.79
2019-03-19T12:03:30.059Z,8.26
2019-03-19T12:08:34.558Z,8.45
2019-03-19T12:13:38.881Z,8.33
2019-03-19T12:18:43.446Z,8.08
2019-03-19T12:23:47.828Z,7.97
2019-03-19T12:28:52.168Z,8.11
2019-03-19T12:33:56.531Z,8.62
2019-03-19T12:39:00.916Z,9.18
2019-03-19T12:44:06.430Z,8.68
2019-03-19T12:49:10.785Z,8.79
2019-03-19T12:54:15.185Z,8.76
2019-03-19T12:59:20.678Z,9.22
2019-03-19T13:04:25.115Z,9.41
2019-03-19T13:09:29.464Z,8.94
2019-03-19T13:14:33.826Z,8.30
2019-03-19T13:19:38.222Z,8.24
2019-03-19T13:24:42.566Z,8.01
2019-03-19T13:29:46.931Z,8.38
2019-03-19T13:34:51.296Z,8.55
2019-03-19T13:39:55.633Z,8.62
2019-03-19T13:45:00.035Z,8.59
2019-03-19T13:50:07.200Z,8.66
2019-03-19T13:55:14.743Z,8.84
2019-03-19T14:00:19.804Z,8.92
2019-03-19T14:05:24.188Z,8.84
2019-03-19T14:10:28.653Z,8.71
2019-03-19T14:15:34.045Z,8.68
2019-03-19T14:39:46.992Z,8.30
2019-03-19T14:44:51.418Z,8.25
2019-03-19T14:49:55.737Z,8.04
2019-03-19T14:55:00.071Z,7.94
2019-03-19T15:00:10.465Z,8.08
2019-03-19T15:05:15.517Z,7.79
2019-03-19T15:10:23.563Z,7.82
2019-03-19T15:15:27.958Z,8.02
2019-03-19T15:20:32.278Z,7.79
2019-03-19T15:25:36.721Z,7.84
2019-03-19T15:30:41.047Z,8.15
2019-03-19T15:35:45.429Z,7.99
2019-03-19T15:40:49.746Z,8.05
2019-03-19T15:45:54.122Z,8.00
2019-03-19T15:50:58.546Z,7.89
2019-03-19T15:56:02.892Z,7.84
2019-03-19T16:01:07.255Z,7.69
2019-03-19T16:06:11.614Z,7.78
2019-03-19T16:11:16.052Z,7.70
2019-03-19T16:16:20.416Z,7.68
2019-03-19T16:21:24.791Z,7.77
2019-03-19T16:26:29.153Z,7.82
2019-03-19T16:31:33.495Z,7.71
2019-03-19T16:36:37.878Z,7.67
2019-03-19T16:41:42.335Z,7.71
2019-03-19T16:46:46.672Z,7.65
2019-03-19T16:51:51.037Z,7.63
2019-03-19T16:56:55.548Z,7.69
2019-03-19T17:02:01.876Z,7.70
2019-03-19T17:07:06.151Z,7.47
2019-03-19T17:12:10.603Z,7.48
2019-03-19T17:17:15.045Z,7.54
2019-03-19T17:22:19.714Z,7.54
2019-03-19T17:27:24.170Z,7.62
2019-03-19T17:32:28.538Z,7.43
2019-03-19T17:37:32.941Z,7.05
2019-03-19T17:42:37.312Z,7.20
2019-03-19T17:47:41.802Z,7.25
2019-03-19T17:52:46.949Z,7.13
2019-03-19T17:57:51.519Z,6.83
2019-03-19T18:02:55.935Z,7.05
2019-03-19T18:08:01.674Z,7.17
2019-03-19T18:13:06.734Z,6.87
2019-03-19T18:18:11.345Z,7.02
2019-03-19T18:23:15.782Z,6.99
2019-03-19T18:28:20.183Z,7.01
2019-03-19T18:33:24.534Z,7.05
2019-03-19T18:38:28.906Z,6.95
2019-03-19T18:43:33.284Z,6.76
2019-03-19T18:48:37.681Z,6.92
2019-03-19T18:53:42.036Z,7.02
2019-03-19T18:58:46.400Z,6.99
2019-03-19T19:03:50.765Z,6.95
2019-03-19T19:08:55.296Z,6.81
2019-03-19T19:13:59.663Z,7.15
2019-03-19T19:19:04.117Z,7.04
2019-03-19T19:24:10.701Z,7.01
2019-03-19T19:29:15.354Z,7.04
2019-03-19T19:34:19.861Z,6.94
2019-03-19T19:39:24.323Z,6.76
2019-03-19T19:44:29.945Z,6.94
2019-03-19T19:49:34.487Z,6.94
2019-03-19T19:54:38.947Z,7.10
2019-03-19T19:59:43.626Z,7.00
2019-03-19T20:04:48.044Z,7.09
2019-03-19T20:09:52.721Z,7.10
2019-03-19T20:14:57.090Z,7.01
2019-03-19T20:20:01.437Z,7.15
2019-03-19T20:25:06.807Z,7.00
2019-03-19T20:30:27.544Z,6.95
2019-03-19T20:35:31.878Z,6.91
2019-03-19T20:40:36.228Z,6.97
2019-03-19T20:45:40.563Z,7.02
2019-03-19T20:50:45.004Z,7.04
2019-03-19T20:55:50.315Z,6.73
2019-03-19T21:00:54.675Z,6.96
2019-03-19T21:05:59.321Z,6.86
2019-03-19T21:11:03.727Z,6.94
2019-03-19T21:16:08.157Z,7.04
2019-03-19T21:21:12.520Z,6.82
2019-03-19T21:26:16.926Z,6.97
2019-03-19T21:31:21.259Z,6.64
2019-03-19T21:36:25.722Z,6.78
2019-03-19T21:41:30.083Z,6.97
2019-03-19T21:46:34.416Z,6.81
2019-03-19T21:51:38.878Z,6.76
2019-03-19T21:56:43.318Z,6.95
2019-03-19T22:01:48.462Z,6.94
2019-03-19T22:06:52.843Z,6.90
2019-03-19T22:11:57.300Z,6.86
2019-03-19T22:17:01.690Z,6.85
2019-03-19T22:22:07.439Z,6.64
2019-03-19T22:27:12.012Z,6.58
2019-03-19T22:32:16.666Z,6.43
2019-03-19T22:37:20.977Z,6.69
2019-03-19T22:42:25.336Z,6.62
2019-03-19T22:47:29.680Z,6.51
2019-03-19T22:52:34.049Z,6.45
2019-03-19T22:57:39.494Z,6.42
2019-03-19T23:02:43.886Z,6.21
2019-03-19T23:07:48.237Z,6.24
2019-03-19T23:12:52.692Z,6.49
2019-03-19T23:17:57.105Z,6.31
2019-03-19T23:23:01.514Z,6.23
2019-03-19T23:28:05.863Z,6.22
2019-03-19T23:33:10.218Z,5.81
2019-03-19T23:38:14.693Z,5.88
2019-03-19T23:43:19.042Z,5.96
2019-03-19T23:48:23.460Z,6.13
2019-03-19T23:53:27.831Z,5.95
2019-03-19T23:58:32.260Z,6.00
